Time;durP1;ratioP1;P1;durP2;ratioP2;P2;SDS_P1;SDS_P2;PMS_P1;PMS_P2;Temp;Humidity;BMP_temperature;BMP_pressure;BME280_temperature;BME280_humidity;BME280_pressure;Samples;Min_cycle;Max_cycle;Signal;HPM_P1;HPM_P2
2021/09/15 00:06:47;;;;;;;26.40;13.43;;;;;;;11.13;100.00;100772.09;713826;1199;115310;-72
2021/09/15 00:21:49;;;;;;;30.28;14.95;;;;;;;10.94;100.00;100774.56;713883;1199;115759;-73
2021/09/15 00:36:51;;;;;;;36.05;15.60;;;;;;;10.69;100.00;100776.58;713995;1199;115331;-71
2021/09/15 00:51:53;;;;;;;25.35;13.05;;;;;;;10.59;100.00;100784.34;713797;1202;115792;-72
2021/09/15 01:06:56;;;;;;;25.05;11.65;;;;;;;10.36;100.00;100773.08;713927;1201;114470;-72
2021/09/15 01:21:58;;;;;;;21.15;12.08;;;;;;;10.46;100.00;100776.61;714104;1199;114906;-72
2021/09/15 01:37:01;;;;;;;29.58;13.45;;;;;;;10.26;100.00;100772.11;713802;1177;114489;-70
2021/09/15 01:52:05;;;;;;;27.03;13.20;;;;;;;10.27;100.00;100764.11;713808;1202;115539;-73
2021/09/15 02:07:09;;;;;;;28.85;15.60;;;;;;;10.12;100.00;100757.45;713845;1203;115250;-71
2021/09/15 02:22:11;;;;;;;45.57;19.80;;;;;;;10.14;100.00;100750.31;713764;1199;115615;-71
2021/09/15 02:37:14;;;;;;;44.53;20.20;;;;;;;9.87;100.00;100735.80;713788;1199;115555;-71
2021/09/15 02:52:16;;;;;;;44.23;21.35;;;;;;;9.87;100.00;100753.30;713985;1176;114694;-71
2021/09/15 03:07:19;;;;;;;21.67;11.57;;;;;;;9.97;100.00;100744.59;714176;1202;115296;-71
2021/09/15 03:22:21;;;;;;;23.90;12.70;;;;;;;10.11;100.00;100740.89;713880;1200;114487;-71
2021/09/15 03:37:23;;;;;;;24.70;13.78;;;;;;;10.31;100.00;100746.36;713792;1199;115498;-73
2021/09/15 03:52:26;;;;;;;27.08;14.30;;;;;;;10.55;100.00;100751.44;713826;1199;115571;-71
2021/09/15 04:07:28;;;;;;;33.23;16.05;;;;;;;10.84;100.00;100724.63;713994;1203;115384;-71
2021/09/15 04:22:31;;;;;;;37.60;17.97;;;;;;;11.01;100.00;100712.73;714028;1200;116241;-72
2021/09/15 04:37:34;;;;;;;25.43;13.28;;;;;;;11.11;100.00;100705.77;713831;1203;115001;-72
2021/09/15 04:52:36;;;;;;;17.43;10.08;;;;;;;11.33;100.00;100707.39;713775;1203;115882;-72
2021/09/15 05:07:38;;;;;;;18.03;10.18;;;;;;;11.65;100.00;100710.86;713866;1203;116091;-72
2021/09/15 05:22:40;;;;;;;194.63;56.50;;;;;;;11.96;100.00;100714.34;713983;1199;114561;-72
2021/09/15 05:37:43;;;;;;;24.80;14.55;;;;;;;12.40;100.00;100718.45;714279;1200;114779;-69
2021/09/15 05:52:46;;;;;;;21.63;13.57;;;;;;;12.87;100.00;100683.56;714169;1199;116432;-69
2021/09/15 06:07:49;;;;;;;20.73;12.45;;;;;;;13.30;100.00;100698.01;714120;1200;115760;-73
2021/09/15 06:22:51;;;;;;;16.47;9.90;;;;;;;13.93;100.00;100694.73;714192;1202;115785;-70
2021/09/15 06:37:54;;;;;;;18.73;9.60;;;;;;;14.78;100.00;100694.45;714260;1188;115135;-72
2021/09/15 06:52:57;;;;;;;14.33;8.97;;;;;;;16.18;100.00;100685.59;714222;1200;114288;-72
2021/09/15 07:08:01;;;;;;;8.43;5.93;;;;;;;17.44;100.00;100679.11;714243;1200;116283;-76
2021/09/15 07:23:03;;;;;;;7.38;5.60;;;;;;;18.38;100.00;100699.58;714737;1200;114945;-74
2021/09/15 07:38:05;;;;;;;12.10;7.60;;;;;;;18.40;100.00;100686.96;715406;1199;114115;-83
2021/09/15 07:53:08;;;;;;;11.15;7.95;;;;;;;19.57;100.00;100689.20;714490;1200;114902;-72
2021/09/15 08:08:12;;;;;;;11.58;8.10;;;;;;;20.18;100.00;100700.58;714322;1177;114178;-78
2021/09/15 08:23:17;;;;;;;10.53;7.08;;;;;;;21.31;100.00;100697.25;714482;1200;114688;-79
2021/09/15 08:38:19;;;;;;;11.40;8.60;;;;;;;21.78;100.00;100701.02;714656;1200;114598;-79
2021/09/15 08:53:21;;;;;;;14.83;8.68;;;;;;;22.60;100.00;100693.01;714774;1203;114794;-78
2021/09/15 09:08:25;;;;;;;14.13;8.73;;;;;;;23.06;98.18;100669.95;714589;1200;114838;-78
2021/09/15 09:23:27;;;;;;;11.20;8.73;;;;;;;23.72;94.02;100666.26;714435;1177;114164;-79
2021/09/15 09:38:46;;;;;;;8.60;7.63;;;;;;;24.02;88.99;100646.98;714261;1203;114344;-72
2021/09/15 09:53:50;;;;;;;18.67;7.20;;;;;;;24.96;84.76;100626.66;714859;1200;114279;-80
2021/09/15 10:08:56;;;;;;;10.80;7.03;;;;;;;25.72;81.69;100616.45;715686;1199;114902;-78
2021/09/15 10:23:59;;;;;;;6.63;5.53;;;;;;;25.65;77.67;100603.11;715019;1200;115006;-74
2021/09/15 10:39:02;;;;;;;7.73;6.15;;;;;;;26.22;75.65;100604.58;714053;1202;114097;-74
2021/09/15 10:54:43;;;;;;;9.53;6.05;;;;;;;26.95;74.18;100597.14;714750;1188;113978;-73
2021/09/15 11:09:58;;;;;;;9.00;6.20;;;;;;;27.46;70.58;100591.97;714717;1203;114159;-69
2021/09/15 11:25:01;;;;;;;7.23;6.18;;;;;;;27.17;69.25;100586.53;714172;1200;115447;-69
2021/09/15 11:40:06;;;;;;;7.75;6.50;;;;;;;27.01;69.25;100569.25;713857;1202;114280;-70
2021/09/15 11:55:12;;;;;;;16.78;7.75;;;;;;;25.90;68.15;100551.09;714078;1199;115536;-70
2021/09/15 12:10:14;;;;;;;10.63;7.25;;;;;;;25.56;69.52;100531.97;713860;1202;115193;-70
2021/09/15 12:25:17;;;;;;;312.17;170.93;;;;;;;25.21;69.96;100536.13;714034;1199;114442;-70
2021/09/15 12:40:20;;;;;;;12.73;10.55;;;;;;;26.17;69.28;100524.65;714001;1199;114724;-70
2021/09/15 12:55:25;;;;;;;10.53;7.30;;;;;;;27.09;67.90;100505.34;714281;1200;114382;-71
2021/09/15 13:10:27;;;;;;;13.03;10.03;;;;;;;26.05;67.58;100486.17;713961;1200;115805;-72
2021/09/15 13:25:30;;;;;;;22.70;14.93;;;;;;;25.64;68.96;100474.42;713890;1199;114717;-78
2021/09/15 13:40:33;;;;;;;14.83;8.73;;;;;;;27.20;68.21;100474.84;714115;1177;114381;-69
2021/09/15 13:55:35;;;;;;;152.60;82.20;;;;;;;29.16;61.90;100456.10;714319;1200;115663;-71
2021/09/15 14:10:38;;;;;;;24.43;16.95;;;;;;;27.60;62.68;100446.23;714163;1202;115632;-74
2021/09/15 14:25:41;;;;;;;9.88;8.23;;;;;;;26.87;65.85;100442.23;714580;1202;115509;-69
2021/09/15 14:40:43;;;;;;;15.25;7.23;;;;;;;27.33;64.92;100422.58;715258;1200;114110;-70
2021/09/15 14:55:47;;;;;;;12.60;7.43;;;;;;;30.09;62.91;100398.20;714157;1199;115395;-70
2021/09/15 15:10:54;;;;;;;13.03;8.03;;;;;;;30.18;59.59;100417.42;715134;1199;115504;-70
2021/09/15 15:25:57;;;;;;;10.80;6.53;;;;;;;26.76;63.96;100401.92;713967;1199;115666;-70
2021/09/15 15:40:59;;;;;;;21.70;16.10;;;;;;;28.20;63.91;100385.38;714201;1199;114026;-70
2021/09/15 15:56:03;;;;;;;18.53;11.13;;;;;;;27.11;65.26;100396.38;714644;1176;114309;-72
2021/09/15 16:11:05;;;;;;;14.78;9.20;;;;;;;25.79;66.10;100364.67;718653;1176;114327;-70
2021/09/15 16:26:08;;;;;;;16.48;10.90;;;;;;;24.36;69.89;100362.60;714973;1200;115035;-70
2021/09/15 16:41:11;;;;;;;65.35;41.85;;;;;;;23.19;74.01;100359.57;714474;1200;113789;-71
2021/09/15 16:56:13;;;;;;;16.50;13.27;;;;;;;22.24;78.05;100363.69;714269;1203;114807;-71
2021/09/15 17:11:16;;;;;;;21.73;14.90;;;;;;;21.57;80.48;100357.66;714452;1176;114181;-69
2021/09/15 17:26:19;;;;;;;28.23;21.50;;;;;;;20.83;83.51;100362.06;714344;1202;115385;-71
2021/09/15 17:41:21;;;;;;;16.53;13.43;;;;;;;20.26;86.30;100360.37;713957;1203;115879;-71
2021/09/15 17:56:24;;;;;;;22.90;15.70;;;;;;;20.01;88.18;100349.38;713900;1203;114550;-70
2021/09/15 18:11:27;;;;;;;265.03;152.35;;;;;;;19.60;89.82;100356.23;714021;1200;114522;-71
2021/09/15 18:26:30;;;;;;;265.83;144.35;;;;;;;19.49;91.30;100364.73;714169;1176;115067;-71
2021/09/15 18:41:32;;;;;;;33.13;22.95;;;;;;;19.32;92.67;100353.56;714306;1199;114825;-71
2021/09/15 18:56:36;;;;;;;29.28;20.08;;;;;;;19.20;93.90;100347.09;714111;1178;114477;-70
2021/09/15 19:11:39;;;;;;;20.23;13.90;;;;;;;19.09;94.88;100346.58;713909;1202;114904;-68
2021/09/15 19:26:42;;;;;;;22.70;14.55;;;;;;;18.95;96.63;100332.34;713968;1176;114362;-70
2021/09/15 19:41:45;;;;;;;19.95;14.38;;;;;;;18.84;96.88;100339.97;713931;1200;114767;-69
2021/09/15 19:56:48;;;;;;;18.43;13.65;;;;;;;18.64;97.70;100327.28;713843;1202;115141;-69
2021/09/15 20:11:51;;;;;;;15.30;11.65;;;;;;;18.37;97.90;100315.52;714293;1177;115717;-69
2021/09/15 20:26:54;;;;;;;16.80;12.33;;;;;;;18.17;98.77;100313.42;715108;1200;114738;-69
2021/09/15 20:41:58;;;;;;;15.23;11.77;;;;;;;17.98;99.75;100306.86;715313;1177;114227;-70
2021/09/15 20:57:00;;;;;;;16.73;11.88;;;;;;;17.75;100.00;100313.05;714334;1199;116209;-68
2021/09/15 21:12:04;;;;;;;15.37;11.93;;;;;;;17.56;100.00;100314.38;714152;1203;116589;-69
2021/09/15 21:27:07;;;;;;;14.53;10.68;;;;;;;17.49;100.00;100307.34;714630;1199;115140;-68
2021/09/15 21:42:09;;;;;;;13.35;10.70;;;;;;;17.50;100.00;100295.71;714164;1199;116150;-69
2021/09/15 21:57:11;;;;;;;15.60;9.78;;;;;;;17.37;100.00;100291.86;714931;1202;115758;-69
2021/09/15 22:12:13;;;;;;;12.20;8.98;;;;;;;17.32;100.00;100283.61;714450;1200;114795;-69
2021/09/15 22:27:15;;;;;;;11.63;8.80;;;;;;;17.22;100.00;100264.48;714261;1202;114299;-69
2021/09/15 22:42:17;;;;;;;12.58;8.93;;;;;;;17.10;100.00;100248.19;714466;1200;115408;-71
2021/09/15 22:57:19;;;;;;;12.23;9.10;;;;;;;17.10;100.00;100237.58;713953;1202;114415;-69
2021/09/15 23:12:22;;;;;;;16.73;10.23;;;;;;;17.07;100.00;100225.52;713775;1200;114509;-69
2021/09/15 23:27:25;;;;;;;13.53;10.05;;;;;;;17.07;100.00;100214.91;713823;1199;115462;-69
2021/09/15 23:42:28;;;;;;;16.95;11.73;;;;;;;17.07;100.00;100212.27;713594;1199;115848;-69
2021/09/15 23:57:30;;;;;;;16.93;10.98;;;;;;;17.10;100.00;100203.97;713682;1200;115134;-69
